Humidity-temperature Sensor

Selected Measurement Type: Air Temperature

 
Air Temperature [°C]     6 entries per hour
Showing data from 3/13/2023 (00:00:00 Z) to 3/10/2023 (00:01:00 Z)
Previous Next [ Day | 3-Days | 7-Days ]
First Last
Prev [ Day | 3-Days | 7-Days ] Next
First Last

Start Time:     :
End Time:     :     
Time (in GMT) :00 :50 :40 :30 :20 :10
Previous Next [ Day | 3-Days | 7-Days ]
First Last
Prev [ Day | 3-Days | 7-Days ] Next
First Last


123 => good data
MM => data is determined as missing
-- => data not received/configured
Back to Top Back to Top
3/13/2023 00:00 to 23:10 27.62 27.59 27.54 27.61 27.47 27.59
3/12/2023 23:00 to 22:10 27.54 27.56 27.57 27.49 27.62 27.64
3/12/2023 22:00 to 21:10 27.61 27.56 27.51 27.49 27.46 27.45
3/12/2023 21:00 to 20:10 27.49 27.54 27.40 27.40 26.90 27.01
3/12/2023 20:00 to 19:10 27.00 27.05 26.87 26.89 27.14 27.30
3/12/2023 19:00 to 18:10 27.32 27.02 26.95 26.90 26.57 26.63
3/12/2023 18:00 to 17:10 26.45 26.43 26.70 26.70 26.94 26.68
3/12/2023 17:00 to 16:10 26.35 26.05 26.14 26.29 26.22 26.13
3/12/2023 16:00 to 15:10 27.01 26.86 26.77 26.63 26.22 25.93
3/12/2023 15:00 to 14:10 25.81 26.16 27.00 26.88 27.00 27.05
3/12/2023 14:00 to 13:10 27.05 26.80 27.66 27.74 27.70 27.57
3/12/2023 13:00 to 12:10 27.61 27.69 27.69 27.61 27.74 27.68
3/12/2023 12:00 to 11:10 27.76 27.70 27.71 27.63 27.70 27.78
3/12/2023 11:00 to 10:10 27.71 27.81 27.80 27.79 27.85 27.79
3/12/2023 10:00 to 9:10 27.82 27.77 27.76 27.93 27.92 27.72
3/12/2023 09:00 to 8:10 27.87 27.87 27.83 27.91 27.85 27.89
3/12/2023 08:00 to 7:10 28.01 28.02 27.85 27.91 27.88 27.87
3/12/2023 07:00 to 6:10 27.83 27.83 27.90 27.91 27.94 27.94
3/12/2023 06:00 to 5:10 27.90 27.96 27.95 27.92 27.98 28.07
3/12/2023 05:00 to 4:10 28.10 28.14 28.09 28.27 28.08 28.17
3/12/2023 04:00 to 3:10 28.17 28.15 28.17 28.10 28.06 27.73
3/12/2023 03:00 to 2:10 27.70 27.70 27.68 27.58 27.55 27.61
3/12/2023 02:00 to 1:10 27.56 27.49 27.44 27.45 27.47 27.37
3/12/2023 01:00 to 0:10 27.30 27.26 27.13 27.25 27.15 27.17
3/12/2023 00:00 to 23:10 27.23 27.26 26.86 26.70 26.60 26.71
3/11/2023 23:00 to 22:10 26.97 26.87 27.39 27.43 27.56 27.57
3/11/2023 22:00 to 21:10 27.59 27.55 27.59 27.54 27.53 27.31
3/11/2023 21:00 to 20:10 27.54 27.48 27.58 27.46 27.55 27.44
3/11/2023 20:00 to 19:10 27.37 27.22 27.11 26.88 26.58 26.53
3/11/2023 19:00 to 18:10 26.81 26.87 26.91 27.14 27.03 27.40
3/11/2023 18:00 to 17:10 26.91 27.26 27.21 27.27 27.15 27.17
3/11/2023 17:00 to 16:10 27.20 27.20 27.10 27.08 27.07 27.03
3/11/2023 16:00 to 15:10 27.06 27.01 26.86 26.84 26.84 26.95
3/11/2023 15:00 to 14:10 26.91 26.88 26.83 26.85 26.78 26.82
3/11/2023 14:00 to 13:10 26.80 26.78 26.80 26.68 26.75 26.71
3/11/2023 13:00 to 12:10 26.69 26.69 26.53 26.43 26.52 27.03
3/11/2023 12:00 to 11:10 26.82 26.76 26.80 26.82 26.86 26.96
3/11/2023 11:00 to 10:10 26.65 26.70 26.66 26.61 26.59 26.61
3/11/2023 10:00 to 9:10 26.42 26.62 26.90 26.73 26.61 26.45
3/11/2023 09:00 to 8:10 26.30 26.44 26.53 26.34 26.27 26.28
3/11/2023 08:00 to 7:10 26.16 26.11 26.16 26.09 26.04 26.18
3/11/2023 07:00 to 6:10 25.94 25.87 25.82 25.69 25.73 25.72
3/11/2023 06:00 to 5:10 25.52 25.43 25.12 25.19 25.27 25.07
3/11/2023 05:00 to 4:10 25.52 25.48 25.87 26.00 25.79 25.39
3/11/2023 04:00 to 3:10 25.57 25.72 25.87 25.81 25.64 25.28
3/11/2023 03:00 to 2:10 25.12 24.64 25.11 25.09 25.08 25.67
3/11/2023 02:00 to 1:10 25.23 25.16 25.02 24.84 24.55 24.41
3/11/2023 01:00 to 0:10 24.64 24.74 24.75 24.99 25.36 25.41
3/11/2023 00:00 to 23:10 25.73 26.48 27.50 27.62 27.70 27.49
3/10/2023 23:00 to 22:10 27.51 27.41 27.48 27.57 27.53 27.62
3/10/2023 22:00 to 21:10 27.59 27.46 27.63 27.63 27.66 27.45
3/10/2023 21:00 to 20:10 27.48 27.50 27.66 27.47 27.65 27.68
3/10/2023 20:00 to 19:10 27.77 27.89 27.77 27.64 27.63 27.68
3/10/2023 19:00 to 18:10 27.33 27.60 27.51 27.49 27.30 27.08
3/10/2023 18:00 to 17:10 27.08 27.01 27.05 26.97 26.93 27.08
3/10/2023 17:00 to 16:10 26.91 26.92 27.02 26.87 26.89 26.96
3/10/2023 16:00 to 15:10 27.06 26.95 26.93 26.98 26.87 26.93
3/10/2023 15:00 to 14:10 26.85 26.91 26.96 26.95 26.92 27.02
3/10/2023 14:00 to 13:10 26.97 27.03 26.94 26.84 26.83 26.99
3/10/2023 13:00 to 12:10 26.84 26.90 26.79 27.00 26.91 26.77
3/10/2023 12:00 to 11:10 26.76 26.62 26.62 26.74 26.86 26.79
3/10/2023 11:00 to 10:10 26.68 26.83 27.32 27.28 27.24 27.02
3/10/2023 10:00 to 9:10 26.89 26.90 27.13 26.77 26.82 27.00
3/10/2023 09:00 to 8:10 27.15 27.37 27.15 26.94 27.38 27.41
3/10/2023 08:00 to 7:10 27.56 27.53 27.47 27.50 27.50 27.36
3/10/2023 07:00 to 6:10 27.39 27.35 27.40 27.35 27.40 27.26
3/10/2023 06:00 to 5:10 27.26 27.25 27.19 27.20 27.23 27.25
3/10/2023 05:00 to 4:10 27.23 27.30 27.27 27.41 27.40 27.31
3/10/2023 04:00 to 3:10 27.39 27.28 27.37 27.26 27.40 27.36
3/10/2023 03:00 to 2:10 27.37 27.48 27.40 27.43 27.41 27.39
3/10/2023 02:00 to 1:10 27.25 27.34 27.31 27.21 27.20 27.09
3/10/2023 01:00 to 0:10 27.08 27.00 27.14 27.03 27.09 27.13